Portada
METAR-TAF:

METAR-TAF

Aeropuertos :

Mont-De-Marsan, Francia

latitud: 43-55N, longitud: 000-30W, altitud: 62 m

Observación

El informe se hizo hace 16 minutos, a las 08:00 UTC
Viento 1 kt con dirección variable
Temperatura 20°C
Humedad 83%
Presión 1018 hPa
Visibilidad 10 km o más
Cielo cubierto a una altura de 4100 ft

METAR: LFBM 140800Z AUTO VRB01KT 9999 OVC041 20/17 Q1018

Hora: 10:16 (08:16 UTC)

Pronóstico

El informe se hizo hace 6 horas y 16 minutos, a las 02:00 UTC
Pronóstico válido del 14 a las 03 UTC al 15 a las 03 UTC
Viento 5 kt del oeste-noroeste
Visibilidad 10 km o más
Nubes dispersas a una altura de 3000 ft
Probabilidad 40%
del 14 a las 03 UTC al 14 a las 06 UTC
Visibilidad: 0900 m
niebla en bancos

TAF: LFBM 140200Z 1403/1503 29005KT 9999 SCT030 PROB40 1403/1406 0900 BCFG

Observaciones y pronósticos meteorológicos de más de 4000 aeropuertos (mensajes METAR y TAF).

Los puntos amarillos y rojos representan las estaciones disponibles.

Ponga el ratón en el punto deseado para ver el nombre de la estación.

Haga clic para ver las observaciones y los pronósticos meteorológicos.

Para cambiar el mapa : haga clic en los botones verdes con una cruz de color negro para hacer un zoom, en el botón verde con un guión para alejar o en las flechas verdes para mapas adyacentes.


METAR-TAF: